Time;durP1;ratioP1;P1;durP2;ratioP2;P2;SDS_P1;SDS_P2;PMS_P1;PMS_P2;Temp;Humidity;BMP_temperature;BMP_pressure;BME280_temperature;BME280_humidity;BME280_pressure;Samples;Min_cycle;Max_cycle;Signal;HPM_P1;HPM_P2
2023/02/01 00:02:01;;;;;;;13.25;6.15;;;;;;;1.95;85.19;98101.69;5083190;28;20068;-61
2023/02/01 00:04:27;;;;;;;18.42;8.15;;;;;;;2.30;85.13;98167.47;5062571;28;20070;-61
2023/02/01 00:06:53;;;;;;;18.75;8.32;;;;;;;2.29;84.94;98174.31;5068320;28;20412;-60
2023/02/01 00:09:19;;;;;;;20.25;8.15;;;;;;;2.31;85.11;98174.25;5078620;28;20123;-62
2023/02/01 00:11:45;;;;;;;17.55;7.47;;;;;;;2.31;84.62;98164.84;5088051;28;20040;-59
2023/02/01 00:14:11;;;;;;;17.00;7.72;;;;;;;2.35;84.72;98179.28;5084488;28;20074;-62
2023/02/01 00:16:37;;;;;;;15.98;6.60;;;;;;;2.11;84.65;98144.84;5089432;28;20048;-60
2023/02/01 00:19:05;;;;;;;19.48;7.80;;;;;;;2.28;85.29;98166.66;5090918;28;20112;-62
2023/02/01 00:21:32;;;;;;;14.77;7.47;;;;;;;2.12;85.39;98140.56;5090619;28;20089;-62
2023/02/01 00:23:58;;;;;;;19.92;8.38;;;;;;;2.34;85.82;98179.31;5070335;28;20041;-61
2023/02/01 00:26:35;;;;;;;16.83;7.75;;;;;;;2.37;85.59;98167.25;5082347;28;20431;-63
2023/02/01 00:29:04;;;;;;;19.23;8.48;;;;;;;2.37;85.33;98163.84;5070845;28;20040;-63
2023/02/01 00:31:30;;;;;;;19.58;8.38;;;;;;;2.09;85.46;98115.03;5072339;28;20047;-64
2023/02/01 00:33:56;;;;;;;18.10;8.30;;;;;;;2.44;85.61;98170.50;5054113;28;20119;-63
2023/02/01 00:36:22;;;;;;;21.27;7.80;;;;;;;2.17;85.30;98120.78;5078184;28;20065;-62
2023/02/01 00:38:48;;;;;;;16.92;7.82;;;;;;;2.60;85.48;98164.09;5071506;28;20028;-61
2023/02/01 00:41:16;;;;;;;13.35;5.40;;;;;;;2.48;84.70;98165.25;5091885;28;20040;-62
2023/02/01 00:43:43;;;;;;;19.02;7.78;;;;;;;2.35;84.93;98163.06;5091052;28;20126;-60
2023/02/01 00:46:09;;;;;;;19.65;8.40;;;;;;;2.41;85.11;98163.72;5083727;28;20075;-61
2023/02/01 00:48:35;;;;;;;17.13;7.28;;;;;;;2.44;84.69;98160.25;5053757;28;20415;-61
2023/02/01 00:51:02;;;;;;;20.00;7.90;;;;;;;2.16;84.19;98137.03;5085925;28;20036;-62
2023/02/01 00:53:28;;;;;;;11.85;5.85;;;;;;;2.35;83.90;98163.91;5089552;28;20039;-61
2023/02/01 00:55:54;;;;;;;16.55;7.50;;;;;;;2.32;84.32;98171.66;5073434;28;20044;-61
2023/02/01 00:58:20;;;;;;;15.00;7.35;;;;;;;2.31;84.14;98164.00;5080463;28;20534;-63
2023/02/01 01:00:47;;;;;;;19.33;7.65;;;;;;;2.27;84.16;98162.41;5080487;28;20131;-63
2023/02/01 01:03:18;;;;;;;15.55;7.25;;;;;;;2.27;84.21;98172.66;5068379;28;20635;-60
2023/02/01 01:05:46;;;;;;;12.43;5.35;;;;;;;2.10;83.77;98142.31;5084871;28;20186;-62
2023/02/01 01:08:12;;;;;;;15.82;6.88;;;;;;;2.20;84.10;98166.84;5084165;28;20052;-63
2023/02/01 01:10:38;;;;;;;14.02;6.70;;;;;;;2.27;83.64;98176.06;5082312;28;20097;-62
2023/02/01 01:13:04;;;;;;;17.83;7.68;;;;;;;2.00;83.66;98121.19;5089664;28;20051;-62
2023/02/01 01:15:30;;;;;;;15.55;7.65;;;;;;;2.28;82.97;98175.19;5088413;28;20497;-60
2023/02/01 01:17:56;;;;;;;11.32;5.32;;;;;;;2.30;83.23;98177.72;5091513;28;20088;-62
2023/02/01 01:20:22;;;;;;;12.43;5.88;;;;;;;2.27;83.59;98176.06;5070070;28;20040;-61
2023/02/01 01:22:48;;;;;;;11.45;4.85;;;;;;;2.23;83.23;98174.47;5080197;28;20420;-61
2023/02/01 01:25:14;;;;;;;9.10;4.45;;;;;;;2.17;83.36;98177.16;5068374;28;20044;-62
2023/02/01 01:27:40;;;;;;;15.30;6.45;;;;;;;2.21;83.39;98178.78;5070313;28;20048;-60
2023/02/01 01:30:07;;;;;;;13.68;6.03;;;;;;;1.92;83.13;98130.81;5088880;28;20339;-61
2023/02/01 01:32:33;;;;;;;14.90;6.63;;;;;;;2.20;82.92;98176.28;5088966;28;20063;-62
2023/02/01 01:34:59;;;;;;;18.65;7.07;;;;;;;2.24;82.88;98178.72;5079401;28;20746;-61
2023/02/01 01:37:25;;;;;;;11.82;5.72;;;;;;;2.32;82.96;98179.34;5076372;28;20032;-61
2023/02/01 01:39:51;;;;;;;13.55;5.65;;;;;;;2.32;82.53;98184.47;5081648;28;20044;-63
2023/02/01 01:42:16;;;;;;;16.45;6.75;;;;;;;2.31;82.51;98187.91;5083943;28;20045;-63
2023/02/01 01:45:05;;;;;;;13.15;6.15;;;;;;;2.28;82.08;98192.28;5084162;28;20537;-62
2023/02/01 01:47:36;;;;;;;;;;;;;;;2.25;81.71;98180.38;5075988;28;20048;-62
2023/02/01 01:50:04;;;;;;;14.82;5.90;;;;;;;2.05;81.92;98152.69;5073256;28;19920;-60
2023/02/01 01:52:30;;;;;;;15.05;6.07;;;;;;;2.19;81.93;98183.13;5077862;28;20114;-61
2023/02/01 01:54:57;;;;;;;12.93;5.03;;;;;;;2.25;82.01;98184.69;5075267;28;20131;-61
2023/02/01 01:57:33;;;;;;;14.63;6.30;;;;;;;2.04;82.18;98152.75;5076382;28;20040;-61
2023/02/01 02:00:10;;;;;;;15.07;6.75;;;;;;;2.29;82.35;98181.16;5088813;28;20424;-59
2023/02/01 02:02:42;;;;;;;13.85;5.10;;;;;;;2.31;81.89;98189.63;5084595;28;20036;-61
2023/02/01 02:05:08;;;;;;;14.75;7.03;;;;;;;2.28;81.84;98184.59;5068414;28;20043;-64
2023/02/01 02:07:37;;;;;;;10.85;5.35;;;;;;;2.19;81.68;98154.06;5085473;28;20489;-61
2023/02/01 02:10:05;;;;;;;13.85;6.35;;;;;;;2.37;81.06;98182.63;5088095;28;20044;-63
2023/02/01 02:12:32;;;;;;;12.90;6.75;;;;;;;2.36;81.25;98188.63;5080855;28;20074;-63
2023/02/01 02:14:59;;;;;;;13.95;6.03;;;;;;;2.31;81.00;98185.34;5079370;28;20052;-61
2023/02/01 02:17:28;;;;;;;10.32;4.78;;;;;;;2.28;81.00;98182.03;5068934;28;20455;-62
2023/02/01 02:20:09;;;;;;;15.38;6.60;;;;;;;2.11;80.89;98155.09;5061022;28;20469;-64
2023/02/01 02:22:43;;;;;;;14.10;6.65;;;;;;;2.30;80.86;98193.94;5088126;28;20044;-61
2023/02/01 02:25:34;;;;;;;14.77;6.25;;;;;;;2.46;80.95;98196.97;5071958;28;20070;-62
2023/02/01 02:28:30;;;;;;;11.55;5.22;;;;;;;2.47;80.53;98194.34;5088676;28;20123;-62
2023/02/01 02:31:30;;;;;;;14.50;6.63;;;;;;;2.50;80.57;98196.84;5085838;28;20037;-61
2023/02/01 02:34:22;;;;;;;13.73;6.07;;;;;;;2.23;79.92;98155.66;5069689;28;20051;-61
2023/02/01 02:37:01;;;;;;;14.80;6.30;;;;;;;2.35;80.06;98199.81;5108546;28;20036;-63
2023/02/01 02:39:34;;;;;;;12.13;5.18;;;;;;;2.36;80.41;98206.59;5108952;28;20031;-62
2023/02/01 02:48:06;;;;;;;;;;;;;;;2.44;80.26;98214.09;5090283;28;20044;-62
2023/02/01 03:04:58;;;;;;;16.10;6.10;;;;;;;2.06;80.67;98174.88;5094105;28;20526;-61
2023/02/01 03:07:58;;;;;;;12.63;6.15;;;;;;;2.22;80.88;98211.22;5062052;28;20052;-63
2023/02/01 03:10:36;;;;;;;14.70;6.40;;;;;;;2.22;80.96;98207.81;5072306;28;20090;-62
2023/02/01 03:13:13;;;;;;;16.60;7.95;;;;;;;2.22;80.64;98213.78;5048322;28;20037;-62
2023/02/01 03:15:43;;;;;;;16.20;7.10;;;;;;;2.21;80.97;98212.09;5077177;28;20043;-62
2023/02/01 03:18:31;;;;;;;12.60;4.97;;;;;;;2.19;80.70;98210.47;5084317;28;20032;-61
2023/02/01 03:21:00;;;;;;;14.05;6.25;;;;;;;2.15;80.91;98214.00;5077853;28;20828;-62
2023/02/01 03:23:31;;;;;;;18.98;7.32;;;;;;;2.10;80.89;98212.34;5070970;28;20040;-55
2023/02/01 03:25:59;;;;;;;15.45;6.90;;;;;;;2.11;80.89;98203.78;5068808;28;20047;-61
2023/02/01 03:28:28;;;;;;;15.10;7.28;;;;;;;2.13;81.01;98217.44;5074018;28;20068;-60
2023/02/01 03:30:55;;;;;;;17.00;7.20;;;;;;;2.17;81.03;98217.34;5063140;28;20535;-61
2023/02/01 03:33:23;;;;;;;17.23;7.53;;;;;;;1.88;81.17;98171.94;5092155;28;20118;-65
2023/02/01 03:36:16;;;;;;;15.50;6.95;;;;;;;2.22;80.81;98223.19;5070530;28;20044;-64
2023/02/01 03:39:11;;;;;;;15.45;6.78;;;;;;;2.20;80.81;98227.53;5065623;28;20058;-61
2023/02/01 03:41:48;;;;;;;15.48;6.90;;;;;;;2.08;80.67;98205.59;5070862;28;20048;-63
2023/02/01 03:44:23;;;;;;;17.42;6.80;;;;;;;2.25;80.56;98228.28;5066080;28;20040;-61
2023/02/01 03:46:57;;;;;;;16.30;5.80;;;;;;;2.23;80.38;98230.88;5067525;28;20163;-63
2023/02/01 03:49:30;;;;;;;15.13;6.85;;;;;;;1.91;80.26;98182.94;5035520;28;20472;-62
2023/02/01 03:51:58;;;;;;;15.77;6.70;;;;;;;2.22;80.24;98239.44;5053110;28;20419;-62
2023/02/01 03:54:26;;;;;;;16.25;6.93;;;;;;;2.22;80.50;98234.31;5067127;28;20044;-62
2023/02/01 03:56:55;;;;;;;14.85;7.38;;;;;;;2.26;80.32;98237.63;5041245;28;20063;-62
2023/02/01 03:59:21;;;;;;;18.70;6.80;;;;;;;2.24;81.01;98240.25;5066401;28;20123;-63
2023/02/01 04:01:47;;;;;;;16.90;7.15;;;;;;;2.28;81.30;98241.84;5058007;28;20051;-62
2023/02/01 04:04:19;;;;;;;13.52;6.00;;;;;;;2.29;81.01;98247.81;5087937;28;20424;-62
2023/02/01 04:06:48;;;;;;;15.65;6.38;;;;;;;2.21;80.84;98249.72;5067391;28;20040;-64
2023/02/01 04:09:14;;;;;;;10.00;4.78;;;;;;;2.01;81.17;98215.16;5086540;28;20515;-62
2023/02/01 04:11:40;;;;;;;15.77;6.93;;;;;;;2.20;81.27;98253.19;5072094;28;20581;-63
2023/02/01 04:14:06;;;;;;;14.50;7.22;;;;;;;2.22;81.34;98257.38;5083852;28;20072;-64
2023/02/01 04:16:32;;;;;;;18.40;6.53;;;;;;;2.21;81.33;98252.28;5081803;28;20074;-61
2023/02/01 04:18:58;;;;;;;16.65;6.93;;;;;;;1.94;81.18;98216.16;5073922;28;20044;-63
2023/02/01 04:21:25;;;;;;;14.23;6.25;;;;;;;1.86;81.58;98200.13;5087763;28;20047;-63
2023/02/01 04:23:51;;;;;;;13.82;6.40;;;;;;;2.21;81.45;98265.94;5067517;28;20415;-67
2023/02/01 04:26:18;;;;;;;15.63;7.68;;;;;;;1.86;81.36;98204.41;5059131;28;20044;-63
2023/02/01 04:28:47;;;;;;;16.08;6.78;;;;;;;2.25;81.13;98269.28;5073837;28;20122;-64
2023/02/01 04:31:17;;;;;;;20.90;7.30;;;;;;;2.12;81.15;98243.09;5083118;28;20035;-61
2023/02/01 04:33:43;;;;;;;13.23;6.53;;;;;;;2.30;81.07;98272.59;5090456;28;20805;-63
2023/02/01 04:36:10;;;;;;;15.35;6.70;;;;;;;2.28;80.81;98271.78;5086360;28;20076;-62
2023/02/01 04:38:35;;;;;;;16.92;7.88;;;;;;;2.23;81.16;98269.31;5086644;28;20036;-63
2023/02/01 04:41:01;;;;;;;16.35;7.43;;;;;;;2.32;81.84;98276.78;5086296;28;20060;-63
2023/02/01 04:43:27;;;;;;;15.50;7.32;;;;;;;2.39;81.21;98280.06;5085712;28;20040;-64
2023/02/01 04:45:53;;;;;;;15.80;7.63;;;;;;;2.37;81.38;98280.06;5086257;28;20063;-64
2023/02/01 04:48:20;;;;;;;17.70;6.53;;;;;;;2.19;81.40;98236.94;5086580;28;20040;-64
2023/02/01 04:50:48;;;;;;;17.45;7.47;;;;;;;2.43;81.15;98284.22;5072733;28;20427;-63
2023/02/01 04:53:15;;;;;;;17.65;7.63;;;;;;;2.47;81.05;98286.66;5087374;28;20499;-62
2023/02/01 04:55:41;;;;;;;19.63;7.53;;;;;;;2.51;80.82;98285.72;5087296;28;20075;-63
2023/02/01 04:58:07;;;;;;;16.90;8.40;;;;;;;2.55;80.60;98289.91;5089908;28;20332;-63
2023/02/01 05:00:33;;;;;;;16.80;7.15;;;;;;;2.60;80.09;98289.78;5049158;28;20072;-62
2023/02/01 05:02:59;;;;;;;18.45;8.18;;;;;;;2.59;80.57;98293.22;5066476;28;20529;-63
2023/02/01 05:05:26;;;;;;;15.02;7.32;;;;;;;2.39;80.13;98264.66;5085538;28;20130;-60
2023/02/01 05:07:52;;;;;;;15.73;7.00;;;;;;;2.60;80.10;98292.34;5083991;28;20036;-61
2023/02/01 05:10:18;;;;;;;15.98;7.10;;;;;;;2.72;79.99;98297.16;5079989;28;20039;-63
2023/02/01 05:15:29;;;;;;;19.58;7.55;;;;;;;2.68;79.30;98297.28;5087835;28;20044;-69
2023/02/01 05:17:55;;;;;;;20.33;8.43;;;;;;;2.57;79.82;98297.53;5088265;28;20047;-67
2023/02/01 05:20:21;;;;;;;18.75;8.57;;;;;;;2.34;80.53;98272.47;5077564;28;20032;-62
2023/02/01 05:22:47;;;;;;;19.77;8.55;;;;;;;2.54;80.41;98306.16;5071781;28;20048;-64
2023/02/01 05:25:13;;;;;;;20.58;8.27;;;;;;;2.35;80.72;98273.31;5086647;28;20586;-64
2023/02/01 05:27:39;;;;;;;18.70;8.23;;;;;;;2.31;80.53;98264.00;5060664;28;20067;-64
2023/02/01 05:30:05;;;;;;;17.85;8.02;;;;;;;2.56;80.60;98308.72;5081779;28;20089;-65
2023/02/01 05:32:32;;;;;;;21.20;7.65;;;;;;;2.49;81.50;98319.97;5075849;28;20503;-65
2023/02/01 05:34:58;;;;;;;21.13;8.43;;;;;;;2.40;80.90;98309.94;5087810;28;20040;-64
2023/02/01 05:37:24;;;;;;;16.92;7.97;;;;;;;2.38;80.86;98309.13;5080233;28;20044;-64
2023/02/01 05:39:50;;;;;;;18.70;8.68;;;;;;;2.38;81.13;98316.81;5087663;28;20035;-64
2023/02/01 05:42:16;;;;;;;18.35;7.78;;;;;;;2.41;81.25;98315.03;5069140;28;20044;-61
2023/02/01 05:44:42;;;;;;;17.42;7.35;;;;;;;2.49;81.22;98320.81;5076550;28;20041;-65
2023/02/01 05:47:07;;;;;;;17.30;8.10;;;;;;;2.49;81.17;98308.00;5069378;28;20047;-62
2023/02/01 05:49:33;;;;;;;21.13;8.45;;;;;;;2.34;80.87;98293.00;5069114;28;20508;-64
2023/02/01 05:51:59;;;;;;;18.50;8.10;;;;;;;2.55;80.53;98309.59;5083718;28;20039;-66
2023/02/01 05:54:25;;;;;;;20.48;8.18;;;;;;;2.62;80.75;98323.94;5089658;28;20043;-63
2023/02/01 05:56:51;;;;;;;19.83;8.55;;;;;;;2.52;80.48;98319.91;5101525;28;20655;-65
2023/02/01 05:59:17;;;;;;;23.52;8.38;;;;;;;2.62;80.78;98320.53;5085269;28;20052;-63
2023/02/01 06:01:43;;;;;;;19.98;8.43;;;;;;;2.53;80.36;98324.16;5070342;28;20047;-63
2023/02/01 06:04:09;;;;;;;23.92;9.43;;;;;;;2.38;82.41;98319.38;5098656;28;20031;-62
2023/02/01 06:06:36;;;;;;;21.33;8.25;;;;;;;2.35;83.47;98322.03;5106035;28;20131;-59
2023/02/01 06:09:02;;;;;;;22.92;10.63;;;;;;;2.36;84.22;98321.13;5091049;28;20109;-61
2023/02/01 06:11:29;;;;;;;18.63;8.00;;;;;;;2.45;84.36;98336.31;5084093;28;20067;-54
2023/02/01 06:13:55;;;;;;;21.67;8.40;;;;;;;2.43;85.21;98331.22;5087403;28;20061;-62
2023/02/01 06:16:21;;;;;;;20.38;8.95;;;;;;;2.22;85.32;98284.72;5087766;28;20039;-62
2023/02/01 06:18:48;;;;;;;21.40;8.57;;;;;;;2.56;85.25;98331.78;5085724;28;20135;-64
2023/02/01 06:21:23;;;;;;;21.77;8.70;;;;;;;2.41;84.97;98302.19;5087556;28;20067;-64
2023/02/01 06:23:53;;;;;;;20.38;8.88;;;;;;;2.63;84.99;98338.44;5087523;28;20450;-63
2023/02/01 06:26:19;;;;;;;26.48;9.93;;;;;;;2.53;84.94;98340.38;5090932;28;20039;-62
2023/02/01 06:28:45;;;;;;;24.90;9.40;;;;;;;2.23;85.20;98299.25;5096225;28;20089;-63
2023/02/01 06:31:12;;;;;;;23.90;9.55;;;;;;;2.30;85.53;98316.19;5066649;28;20511;-62
2023/02/01 06:33:37;;;;;;;24.42;9.75;;;;;;;2.47;85.40;98342.25;5086328;28;20039;-63
2023/02/01 06:36:06;;;;;;;24.17;9.50;;;;;;;2.50;85.32;98343.03;5086983;28;20043;-62
2023/02/01 06:38:34;;;;;;;27.48;9.57;;;;;;;2.47;85.11;98342.25;5089792;28;20134;-62
2023/02/01 06:41:00;;;;;;;25.65;10.18;;;;;;;2.53;84.62;98349.81;5087068;28;20153;-62
2023/02/01 06:43:27;;;;;;;30.33;9.85;;;;;;;2.30;84.77;98322.16;5087949;28;20495;-61
2023/02/01 06:45:53;;;;;;;26.05;8.98;;;;;;;2.45;84.47;98357.69;5060721;28;20048;-63
2023/02/01 06:48:19;;;;;;;25.00;9.70;;;;;;;2.45;84.72;98352.56;5069522;28;20476;-61
2023/02/01 06:50:45;;;;;;;25.23;10.95;;;;;;;2.45;84.46;98341.47;5072505;28;20036;-63
2023/02/01 06:53:11;;;;;;;24.58;10.35;;;;;;;2.43;84.34;98346.63;5085069;28;20521;-63
2023/02/01 06:55:37;;;;;;;28.35;11.13;;;;;;;2.42;84.26;98362.03;5069288;28;20048;-59
2023/02/01 06:58:02;;;;;;;29.10;10.23;;;;;;;2.34;84.74;98321.19;5078144;28;20040;-62
2023/02/01 07:00:29;;;;;;;27.30;10.35;;;;;;;2.40;84.68;98328.75;5077149;28;20043;-61
2023/02/01 07:02:55;;;;;;;26.15;10.55;;;;;;;2.70;84.55;98360.50;5087978;28;20035;-63
2023/02/01 07:05:21;;;;;;;26.08;9.82;;;;;;;2.74;83.92;98362.13;5067935;28;20047;-61
2023/02/01 07:07:47;;;;;;;32.83;12.13;;;;;;;2.72;83.91;98360.50;5088374;28;20039;-61
2023/02/01 07:10:13;;;;;;;27.05;10.63;;;;;;;2.56;84.00;98314.66;5085038;28;20599;-66
2023/02/01 07:12:39;;;;;;;24.58;10.43;;;;;;;2.63;83.89;98337.59;5072375;28;20047;-61
2023/02/01 07:15:06;;;;;;;30.90;10.43;;;;;;;2.67;83.42;98355.44;5086797;28;20040;-67
2023/02/01 07:17:32;;;;;;;25.70;9.73;;;;;;;2.58;83.13;98368.50;5094103;28;20039;-59
2023/02/01 07:19:59;;;;;;;24.90;10.20;;;;;;;2.54;83.38;98364.31;5097774;28;20430;-61
2023/02/01 07:22:26;;;;;;;20.45;9.13;;;;;;;2.55;83.13;98366.84;5090844;28;20400;-59
2023/02/01 07:24:52;;;;;;;21.83;9.10;;;;;;;2.42;82.81;98383.41;5080713;28;20066;-61
2023/02/01 07:27:18;;;;;;;22.80;9.05;;;;;;;2.32;83.17;98387.03;5081288;28;20510;-59
2023/02/01 07:29:44;;;;;;;26.90;10.18;;;;;;;2.32;83.35;98386.19;5081714;28;20052;-59
2023/02/01 07:32:10;;;;;;;31.27;10.55;;;;;;;2.36;83.58;98382.69;5083396;28;20036;-61
2023/02/01 07:34:36;;;;;;;21.90;9.57;;;;;;;2.34;83.46;98382.72;5087113;28;20939;-59
2023/02/01 07:37:02;;;;;;;27.42;10.55;;;;;;;2.43;83.43;98392.78;5091352;28;20133;-59
2023/02/01 07:39:31;;;;;;;30.77;11.38;;;;;;;2.58;83.11;98386.44;5065874;28;20139;-60
2023/02/01 07:41:57;;;;;;;25.52;10.13;;;;;;;2.59;82.91;98383.00;5083964;28;20118;-62
2023/02/01 07:44:23;;;;;;;20.88;7.85;;;;;;;2.50;82.49;98386.66;5090582;28;20052;-61
2023/02/01 07:46:50;;;;;;;23.98;10.20;;;;;;;2.36;82.37;98386.09;5099222;28;20043;-61
2023/02/01 07:49:17;;;;;;;31.27;10.35;;;;;;;2.20;82.49;98371.91;5090037;28;20105;-62
2023/02/01 07:51:43;;;;;;;29.92;10.93;;;;;;;2.11;82.17;98349.91;5105626;28;20050;-63
2023/02/01 07:54:09;;;;;;;26.98;9.18;;;;;;;2.21;82.20;98365.91;5102416;28;20044;-62
2023/02/01 07:56:35;;;;;;;27.05;9.25;;;;;;;2.34;81.93;98382.72;5090708;28;20119;-63
2023/02/01 07:59:01;;;;;;;28.75;9.48;;;;;;;2.40;81.84;98381.75;5071890;28;20144;-64
2023/02/01 08:01:28;;;;;;;22.23;9.25;;;;;;;2.30;81.61;98359.75;5100277;28;20041;-62
2023/02/01 08:04:01;;;;;;;23.48;9.85;;;;;;;2.47;81.21;98380.72;5088111;28;20123;-63
2023/02/01 08:06:32;;;;;;;26.10;10.50;;;;;;;2.48;81.00;98380.69;5088976;28;20043;-64
2023/02/01 08:08:58;;;;;;;24.58;9.63;;;;;;;2.54;80.74;98384.84;5087240;28;20051;-62
2023/02/01 08:11:25;;;;;;;21.48;9.07;;;;;;;2.67;80.39;98380.28;5082480;28;20056;-62
2023/02/01 08:13:51;;;;;;;23.95;9.18;;;;;;;2.60;80.00;98378.72;5069982;28;20044;-61
2023/02/01 08:16:18;;;;;;;18.15;8.40;;;;;;;2.48;79.96;98375.56;5082579;28;20051;-61
2023/02/01 08:18:44;;;;;;;22.08;8.68;;;;;;;2.40;79.45;98377.47;5093154;28;20169;-63
2023/02/01 08:21:11;;;;;;;23.85;9.57;;;;;;;2.43;79.26;98384.25;5088126;28;20032;-64
2023/02/01 08:23:38;;;;;;;25.17;9.90;;;;;;;2.39;79.17;98378.34;5068189;28;20083;-64
2023/02/01 08:26:15;;;;;;;25.98;9.77;;;;;;;2.49;79.27;98386.66;5081557;28;20032;-61
2023/02/01 08:28:43;;;;;;;27.20;11.00;;;;;;;2.42;78.71;98382.53;5086475;28;20040;-64
2023/02/01 08:31:11;;;;;;;26.23;10.68;;;;;;;2.55;78.90;98374.56;5087053;28;20068;-62
2023/02/01 08:33:37;;;;;;;24.00;10.80;;;;;;;2.79;78.54;98369.69;5089873;28;20048;-62
2023/02/01 08:36:05;;;;;;;24.85;10.15;;;;;;;2.84;78.22;98366.16;5094673;28;20038;-62
2023/02/01 08:38:31;;;;;;;28.15;9.80;;;;;;;2.75;77.87;98368.94;5095734;28;20866;-62
2023/02/01 08:41:02;;;;;;;30.98;11.30;;;;;;;2.79;77.77;98372.28;5081758;28;20047;-59
2023/02/01 08:43:28;;;;;;;25.67;10.15;;;;;;;2.75;77.65;98368.94;5085130;28;20055;-61
2023/02/01 08:45:55;;;;;;;24.40;10.32;;;;;;;2.82;77.80;98372.22;5103796;28;20457;-61
2023/02/01 08:48:21;;;;;;;23.38;10.35;;;;;;;2.87;77.60;98365.25;5081676;28;20134;-61
2023/02/01 08:50:47;;;;;;;25.25;10.13;;;;;;;2.84;77.45;98361.00;5090907;28;20032;-61
2023/02/01 08:53:13;;;;;;;27.42;10.68;;;;;;;2.80;77.21;98356.84;5080904;28;20040;-60
2023/02/01 08:55:39;;;;;;;25.05;10.25;;;;;;;2.92;77.23;98364.25;5089238;28;20472;-57
2023/02/01 08:58:05;;;;;;;22.67;9.35;;;;;;;2.76;76.85;98341.56;5088014;28;20127;-58
2023/02/01 09:00:31;;;;;;;28.95;10.02;;;;;;;3.03;76.78;98370.84;5090731;28;20036;-49
2023/02/01 09:02:58;;;;;;;24.48;9.77;;;;;;;3.00;76.12;98374.31;5118985;27;20067;-48
2023/02/01 09:05:26;;;;;;;25.15;10.60;;;;;;;2.90;75.96;98360.88;5083467;28;20556;-53
2023/02/01 09:07:53;;;;;;;21.13;9.52;;;;;;;2.80;75.66;98343.16;5086439;28;20078;-50
2023/02/01 09:10:19;;;;;;;27.33;9.75;;;;;;;2.89;75.40;98373.72;5072167;28;20479;-49
2023/02/01 09:12:45;;;;;;;21.98;9.52;;;;;;;2.89;75.33;98364.31;5077011;28;20075;-47
2023/02/01 09:15:11;;;;;;;27.45;11.07;;;;;;;2.77;75.28;98326.13;5082825;28;20047;-51
2023/02/01 09:17:38;;;;;;;21.33;9.10;;;;;;;2.96;75.13;98358.16;5059361;28;20044;-50
2023/02/01 09:20:04;;;;;;;25.70;10.57;;;;;;;2.96;74.89;98353.03;5062742;28;20052;-53
2023/02/01 09:22:30;;;;;;;22.00;9.77;;;;;;;3.08;74.84;98357.00;5067913;28;20052;-51
2023/02/01 09:24:56;;;;;;;26.20;9.90;;;;;;;3.22;73.94;98361.78;5064545;28;20102;-55
2023/02/01 09:27:23;;;;;;;23.50;9.55;;;;;;;3.24;73.62;98360.88;5086066;28;20044;-49
2023/02/01 09:29:52;;;;;;;24.25;9.88;;;;;;;3.11;73.65;98328.66;5081757;28;20044;-48
2023/02/01 09:32:19;;;;;;;18.85;8.70;;;;;;;3.38;73.27;98348.50;5076157;28;20071;-46
2023/02/01 09:34:45;;;;;;;24.38;9.38;;;;;;;3.33;72.91;98341.78;5089629;28;20058;-47
2023/02/01 09:37:11;;;;;;;23.27;9.98;;;;;;;3.35;72.55;98342.56;5087898;28;20523;-48
2023/02/01 09:39:37;;;;;;;23.92;9.07;;;;;;;3.35;72.37;98340.84;5080012;28;20044;-50
2023/02/01 09:42:34;;;;;;;19.58;7.95;;;;;;;3.40;72.21;98345.88;5087065;28;20048;-49
2023/02/01 09:45:24;;;;;;;23.15;9.85;;;;;;;3.51;71.70;98346.41;5053219;28;20060;-49
2023/02/01 09:47:56;;;;;;;20.15;8.30;;;;;;;3.66;71.45;98340.88;5071749;28;20048;-47
2023/02/01 09:50:28;;;;;;;23.88;9.77;;;;;;;3.75;71.46;98335.47;5091704;28;20111;-46
2023/02/01 09:53:02;;;;;;;19.98;8.85;;;;;;;3.70;71.07;98334.75;5069079;28;20047;-47
2023/02/01 09:55:55;;;;;;;22.73;9.25;;;;;;;3.72;70.82;98339.81;5094716;28;20044;-44
2023/02/01 09:58:28;;;;;;;18.63;7.82;;;;;;;3.53;70.33;98344.66;5068251;28;20487;-46
2023/02/01 10:00:58;;;;;;;16.08;7.22;;;;;;;3.33;70.76;98344.34;5087689;28;20024;-44
2023/02/01 10:03:28;;;;;;;18.50;8.43;;;;;;;3.13;70.84;98341.47;5053116;28;20044;-47
2023/02/01 10:06:00;;;;;;;;;;;;;;;3.24;71.12;98337.75;5072994;28;20130;-47
2023/02/01 10:08:28;;;;;;;15.40;7.97;;;;;;;3.25;70.91;98348.84;5090562;28;19916;-47
2023/02/01 10:10:57;;;;;;;18.65;8.68;;;;;;;3.22;71.15;98346.38;5090415;28;20036;-46
2023/02/01 10:13:38;;;;;;;18.20;7.85;;;;;;;3.32;70.85;98351.22;5072755;28;20051;-43
2023/02/01 10:16:16;;;;;;;18.33;7.70;;;;;;;3.20;70.80;98345.56;5075598;28;20573;-46
2023/02/01 10:18:47;;;;;;;16.10;7.10;;;;;;;3.07;70.95;98346.75;5086843;28;20048;-46
2023/02/01 10:21:41;;;;;;;19.17;8.70;;;;;;;3.01;71.39;98334.94;5062615;28;20135;-48
2023/02/01 10:24:31;;;;;;;23.33;9.02;;;;;;;3.25;71.28;98336.00;5073540;28;20459;-49
2023/02/01 10:27:23;;;;;;;21.58;9.18;;;;;;;3.13;70.98;98336.34;5070750;28;20051;-47
2023/02/01 10:30:04;;;;;;;22.00;9.25;;;;;;;2.90;71.40;98344.63;5068076;28;20508;-53
2023/02/01 10:32:34;;;;;;;23.88;10.30;;;;;;;2.89;71.65;98341.22;5082716;28;20577;-47
2023/02/01 10:35:08;;;;;;;20.83;9.23;;;;;;;2.86;71.73;98345.59;5081272;28;20047;-44
2023/02/01 10:37:34;;;;;;;23.95;8.88;;;;;;;2.79;71.53;98342.31;5078936;28;20081;-47
2023/02/01 10:40:21;;;;;;;19.80;8.35;;;;;;;2.52;71.87;98282.25;5080684;28;20036;-45
2023/02/01 10:42:53;;;;;;;17.00;7.63;;;;;;;2.86;71.64;98333.59;5085802;28;20136;-49
2023/02/01 10:45:21;;;;;;;19.05;9.07;;;;;;;2.95;71.49;98337.66;5068268;28;20499;-47
2023/02/01 10:47:50;;;;;;;21.23;8.73;;;;;;;3.17;71.23;98336.22;5070176;28;20089;-51
2023/02/01 10:50:30;;;;;;;19.75;7.82;;;;;;;3.14;71.31;98330.34;5080427;28;20055;-48
2023/02/01 10:53:04;;;;;;;20.67;8.32;;;;;;;3.09;71.15;98335.56;5068584;28;20426;-45
2023/02/01 10:55:33;;;;;;;18.45;8.50;;;;;;;3.20;71.09;98325.84;5083718;28;20047;-47
2023/02/01 10:58:05;;;;;;;19.63;8.00;;;;;;;3.11;71.17;98328.66;5079270;28;20047;-48
2023/02/01 11:00:58;;;;;;;18.15;7.90;;;;;;;2.84;72.79;98342.19;5089458;28;20131;-50
2023/02/01 11:03:34;;;;;;;19.73;9.18;;;;;;;2.70;74.07;98336.56;5084150;28;20056;-47
2023/02/01 11:06:23;;;;;;;26.55;10.02;;;;;;;2.54;74.34;98329.25;5077535;28;20048;-49
2023/02/01 11:11:01;;;;;;;29.42;13.40;;;;;;;2.58;75.81;98334.28;5113792;27;20428;-49
2023/02/01 11:13:35;;;;;;;25.08;10.77;;;;;;;2.59;76.50;98341.97;5102094;28;20431;-49
2023/02/01 11:16:04;;;;;;;25.58;11.73;;;;;;;2.71;76.84;98336.56;5098026;28;20078;-52
2023/02/01 11:18:33;;;;;;;23.98;11.32;;;;;;;2.81;77.06;98344.84;5104776;28;20067;-50
2023/02/01 11:20:59;;;;;;;31.45;12.80;;;;;;;2.46;77.23;98279.84;5104528;28;20046;-54
2023/02/01 11:23:27;;;;;;;27.92;11.95;;;;;;;2.72;77.68;98338.22;5078939;28;20041;-53
2023/02/01 11:25:58;;;;;;;32.70;14.32;;;;;;;2.73;78.46;98346.75;5104542;28;20031;-51
2023/02/01 11:28:35;;;;;;;33.45;12.40;;;;;;;2.59;79.42;98352.22;5089147;28;20132;-50
2023/02/01 11:31:04;;;;;;;29.55;12.93;;;;;;;2.48;79.87;98349.91;5080641;28;20047;-49
2023/02/01 11:33:35;;;;;;;33.63;13.05;;;;;;;2.40;80.16;98346.69;5104969;28;20039;-52
2023/02/01 11:36:22;;;;;;;30.17;13.40;;;;;;;2.33;80.78;98352.84;5105125;28;20138;-49
2023/02/01 11:39:28;;;;;;;32.80;14.15;;;;;;;2.26;81.08;98348.72;5102495;28;20506;-59
2023/02/01 11:42:15;;;;;;;30.33;12.50;;;;;;;2.19;81.56;98352.31;5036354;28;20040;-58
2023/02/01 11:44:45;;;;;;;31.40;12.98;;;;;;;2.29;81.37;98355.50;5073107;28;20048;-45
2023/02/01 11:47:28;;;;;;;31.83;12.15;;;;;;;2.41;81.39;98348.34;5111857;28;20507;-50
2023/02/01 11:49:59;;;;;;;26.60;12.52;;;;;;;2.48;81.50;98354.19;5090026;28;20043;-46
2023/02/01 11:53:02;;;;;;;32.97;12.68;;;;;;;2.46;81.08;98366.22;5114311;28;20061;-44
2023/02/01 11:55:51;;;;;;;31.55;11.50;;;;;;;2.18;81.36;98342.09;5108329;28;20043;-51
2023/02/01 11:58:25;;;;;;;26.75;11.43;;;;;;;2.28;81.57;98364.06;5093542;27;20044;-47
2023/02/01 12:01:07;;;;;;;29.42;12.57;;;;;;;2.23;81.57;98361.63;5099875;28;20048;-50
2023/02/01 12:03:51;;;;;;;26.83;12.13;;;;;;;2.28;81.38;98369.19;5093518;28;20044;-48
2023/02/01 12:06:35;;;;;;;32.72;13.40;;;;;;;2.27;81.18;98365.78;5085361;28;20036;-48
2023/02/01 12:09:07;;;;;;;27.73;11.88;;;;;;;2.24;80.96;98365.03;5099139;28;20080;-47
2023/02/01 12:12:13;;;;;;;24.83;10.65;;;;;;;2.18;80.67;98372.84;5096477;28;20040;-46